Time;durP1;ratioP1;P1;durP2;ratioP2;P2;SDS_P1;SDS_P2;PMS_P1;PMS_P2;Temp;Humidity;BMP_temperature;BMP_pressure;BME280_temperature;BME280_humidity;BME280_pressure;Samples;Min_cycle;Max_cycle;Signal;HPM_P1;HPM_P2
2022/03/12 00:00:07;;;;;;;38.37;14.73;;;4.80;33.70;;;;;;5024753;28;20618;-47
2022/03/12 00:02:40;;;;;;;34.27;13.30;;;4.70;32.90;;;;;;5021017;28;20238;-48
2022/03/12 00:05:09;;;;;;;36.63;13.27;;;4.80;32.90;;;;;;5026957;28;20195;-46
2022/03/12 00:07:41;;;;;;;32.00;12.37;;;4.70;32.80;;;;;;5017563;28;20883;-45
2022/03/12 00:10:12;;;;;;;38.77;13.63;;;4.70;32.80;;;;;;5027076;28;20221;-49
2022/03/12 00:12:39;;;;;;;44.70;16.33;;;4.60;32.90;;;;;;5028222;28;20328;-49
2022/03/12 00:15:09;;;;;;;44.83;16.53;;;4.60;33.20;;;;;;5026470;28;20309;-46
2022/03/12 00:17:36;;;;;;;44.97;16.83;;;4.60;33.30;;;;;;5029356;28;20194;-45
2022/03/12 00:20:12;;;;;;;57.40;20.07;;;4.60;33.30;;;;;;5031653;28;20201;-45
2022/03/12 00:22:45;;;;;;;45.57;16.27;;;4.60;33.40;;;;;;5025761;28;20632;-48
2022/03/12 00:25:12;;;;;;;41.63;16.07;;;4.60;33.40;;;;;;5027470;28;20203;-46
2022/03/12 00:27:41;;;;;;;55.57;20.23;;;4.50;33.40;;;;;;5030436;28;20249;-48
2022/03/12 00:30:10;;;;;;;58.10;20.30;;;4.50;33.60;;;;;;5026009;28;20356;-47
2022/03/12 00:32:38;;;;;;;62.40;21.73;;;4.50;33.70;;;;;;5029508;28;20256;-44
2022/03/12 00:35:08;;;;;;;66.20;22.90;;;4.40;33.90;;;;;;5031268;28;20191;-45
2022/03/12 00:37:36;;;;;;;55.83;20.87;;;4.40;34.10;;;;;;5025750;28;20190;-50
2022/03/12 00:40:06;;;;;;;60.80;19.73;;;4.40;34.10;;;;;;5012868;28;20198;-46
2022/03/12 00:42:33;;;;;;;52.63;19.13;;;4.30;34.00;;;;;;5021407;28;20195;-47
2022/03/12 00:45:01;;;;;;;56.33;20.17;;;4.30;34.00;;;;;;5022698;28;20190;-47
2022/03/12 00:47:31;;;;;;;58.67;19.77;;;4.30;34.20;;;;;;5027449;28;20608;-47
2022/03/12 00:49:58;;;;;;;44.43;16.97;;;4.20;34.40;;;;;;5028322;28;20211;-45
2022/03/12 00:52:25;;;;;;;39.27;14.47;;;4.20;34.20;;;;;;5025526;28;20202;-45
2022/03/12 00:54:53;;;;;;;41.97;15.40;;;4.10;34.10;;;;;;5023704;28;20230;-49
2022/03/12 00:57:22;;;;;;;38.20;14.43;;;4.10;34.10;;;;;;5023134;28;20597;-53
2022/03/12 00:59:49;;;;;;;44.20;16.50;;;4.00;34.10;;;;;;5026218;28;20235;-49
2022/03/12 01:02:19;;;;;;;44.83;16.70;;;4.10;34.40;;;;;;5026854;28;20238;-47
2022/03/12 01:04:46;;;;;;;53.83;19.07;;;4.10;34.40;;;;;;5030217;28;20222;-50
2022/03/12 01:07:14;;;;;;;43.43;16.80;;;4.10;34.40;;;;;;5027745;28;20194;-47
2022/03/12 01:09:41;;;;;;;53.97;19.83;;;4.10;34.40;;;;;;5030073;28;20206;-50
2022/03/12 01:12:10;;;;;;;55.80;20.80;;;4.10;34.60;;;;;;5024984;28;20206;-50
2022/03/12 01:14:39;;;;;;;57.40;20.03;;;4.10;34.60;;;;;;5025668;28;20206;-53
2022/03/12 01:17:07;;;;;;;49.80;18.40;;;4.00;34.60;;;;;;5029119;28;20191;-47
2022/03/12 01:19:35;;;;;;;46.17;18.07;;;4.00;34.70;;;;;;5027607;28;20702;-50
2022/03/12 01:22:03;;;;;;;59.87;22.30;;;4.00;34.70;;;;;;5027368;28;20570;-48
2022/03/12 01:24:30;;;;;;;54.77;20.20;;;3.90;34.80;;;;;;5029543;28;20205;-47
2022/03/12 01:26:58;;;;;;;49.93;19.70;;;3.90;34.90;;;;;;5000122;28;20290;-50
2022/03/12 01:29:25;;;;;;;46.30;16.97;;;3.90;35.30;;;;;;5025513;28;20199;-47
2022/03/12 01:31:54;;;;;;;49.60;17.43;;;3.80;35.20;;;;;;5028624;28;20206;-46
2022/03/12 01:34:22;;;;;;;41.20;15.43;;;3.80;35.40;;;;;;5027733;28;20593;-47
2022/03/12 01:36:49;;;;;;;39.57;15.40;;;3.80;35.40;;;;;;5027036;28;20286;-46
2022/03/12 01:39:16;;;;;;;35.33;13.60;;;3.70;35.40;;;;;;5026960;28;20205;-44
2022/03/12 01:41:44;;;;;;;32.47;12.47;;;3.60;35.40;;;;;;5021538;28;20602;-46
2022/03/12 01:44:15;;;;;;;50.03;15.37;;;3.60;35.50;;;;;;5019961;28;20257;-49
2022/03/12 01:46:44;;;;;;;33.23;12.67;;;3.60;35.50;;;;;;5028033;28;20199;-47
2022/03/12 01:49:16;;;;;;;47.00;16.97;;;3.60;35.60;;;;;;5029277;28;20202;-49
2022/03/12 01:51:45;;;;;;;39.20;15.27;;;3.70;35.90;;;;;;5025486;28;20202;-45
2022/03/12 01:54:13;;;;;;;46.33;15.87;;;3.70;36.00;;;;;;5029042;28;20214;-48
2022/03/12 01:56:41;;;;;;;40.97;15.20;;;3.60;35.80;;;;;;5029871;28;20202;-45
2022/03/12 01:59:08;;;;;;;38.83;14.73;;;3.60;35.90;;;;;;5026536;28;20191;-47
2022/03/12 02:01:36;;;;;;;35.43;13.70;;;3.60;36.00;;;;;;5028585;28;20210;-47
2022/03/12 02:04:07;;;;;;;31.97;13.33;;;3.50;35.80;;;;;;5028860;28;20316;-45
2022/03/12 02:06:46;;;;;;;31.17;11.17;;;3.50;35.90;;;;;;5026170;28;20748;-49
2022/03/12 02:09:15;;;;;;;34.07;13.83;;;3.50;35.90;;;;;;5028775;28;20631;-45
2022/03/12 02:11:43;;;;;;;40.37;14.70;;;3.60;36.10;;;;;;5027530;28;20210;-48
2022/03/12 02:14:13;;;;;;;34.50;13.37;;;3.50;35.90;;;;;;5026222;28;20205;-50
2022/03/12 02:16:50;;;;;;;34.67;13.07;;;3.50;36.00;;;;;;5019545;28;20198;-46
2022/03/12 02:19:18;;;;;;;38.03;13.77;;;3.50;35.90;;;;;;5016990;28;20206;-48
2022/03/12 02:21:52;;;;;;;36.30;13.23;;;3.50;36.00;;;;;;5025127;28;20210;-52
2022/03/12 02:24:23;;;;;;;35.33;12.53;;;3.50;36.10;;;;;;5009748;28;20248;-48
2022/03/12 02:26:52;;;;;;;30.73;12.67;;;3.50;36.10;;;;;;5023464;28;20202;-47
2022/03/12 02:29:21;;;;;;;39.27;14.03;;;3.50;36.20;;;;;;5026524;28;20647;-46
2022/03/12 02:31:50;;;;;;;36.63;14.13;;;3.40;36.20;;;;;;5018859;28;20218;-49
2022/03/12 02:34:22;;;;;;;46.07;15.47;;;3.50;36.20;;;;;;5026842;28;20190;-45
2022/03/12 02:36:51;;;;;;;47.23;17.50;;;3.40;36.50;;;;;;5025607;28;20389;-47
2022/03/12 02:39:20;;;;;;;52.77;18.77;;;3.40;36.70;;;;;;5028485;28;20201;-51
2022/03/12 02:41:48;;;;;;;50.37;17.60;;;3.40;36.70;;;;;;5009893;28;20190;-48
2022/03/12 02:44:19;;;;;;;48.50;16.80;;;3.40;36.90;;;;;;5027347;28;20206;-49
2022/03/12 02:47:11;;;;;;;48.10;16.43;;;3.40;37.00;;;;;;5028325;28;20593;-53
2022/03/12 02:49:42;;;;;;;57.97;19.77;;;3.40;36.90;;;;;;5026741;28;20213;-46
2022/03/12 02:52:11;;;;;;;49.00;17.73;;;3.30;37.70;;;;;;5025107;28;20202;-47
2022/03/12 02:54:41;;;;;;;42.70;16.23;;;3.30;37.10;;;;;;5024897;28;20213;-49
2022/03/12 02:57:08;;;;;;;36.00;13.17;;;3.30;37.00;;;;;;5022657;28;20252;-50
2022/03/12 02:59:35;;;;;;;28.47;11.63;;;3.30;36.90;;;;;;5026686;28;20566;-47
2022/03/12 03:02:03;;;;;;;36.87;13.30;;;3.20;36.80;;;;;;5028288;28;20234;-48
2022/03/12 03:04:35;;;;;;;52.17;17.13;;;3.40;37.20;;;;;;5022901;28;20305;-46
2022/03/12 03:07:03;;;;;;;50.53;18.00;;;3.10;37.40;;;;;;5027496;28;20198;-48
2022/03/12 03:09:30;;;;;;;54.83;19.60;;;3.10;37.60;;;;;;5028047;28;20230;-51
2022/03/12 03:12:02;;;;;;;45.70;15.90;;;3.00;37.80;;;;;;5026023;28;20207;-52
2022/03/12 03:14:32;;;;;;;35.03;14.47;;;3.00;37.80;;;;;;5028638;28;20301;-51
2022/03/12 03:17:01;;;;;;;39.73;15.20;;;2.90;37.70;;;;;;5028700;28;20516;-50
2022/03/12 03:19:30;;;;;;;35.77;13.00;;;2.90;37.60;;;;;;5028376;28;20605;-52
2022/03/12 03:21:59;;;;;;;30.60;12.67;;;2.90;37.60;;;;;;5027756;28;20191;-51
2022/03/12 03:24:27;;;;;;;28.93;11.53;;;2.90;37.60;;;;;;5030904;28;20689;-50
2022/03/12 03:26:56;;;;;;;33.03;12.70;;;2.80;37.50;;;;;;5029793;28;20202;-51
2022/03/12 03:29:28;;;;;;;34.87;13.20;;;2.90;37.60;;;;;;5013656;28;20202;-49
2022/03/12 03:31:55;;;;;;;37.57;13.27;;;2.80;37.50;;;;;;5031370;28;20206;-48
2022/03/12 03:34:23;;;;;;;29.23;11.70;;;2.80;37.60;;;;;;5029236;28;20198;-47
2022/03/12 03:36:51;;;;;;;30.60;11.37;;;2.80;37.50;;;;;;5031772;28;20376;-50
2022/03/12 03:39:19;;;;;;;27.17;10.93;;;2.80;37.50;;;;;;5032105;28;20195;-48
2022/03/12 03:41:48;;;;;;;29.30;11.17;;;2.90;37.50;;;;;;5028631;28;20206;-48
2022/03/12 03:44:27;;;;;;;25.53;9.57;;;2.90;37.50;;;;;;5029737;28;20195;-47
2022/03/12 03:46:55;;;;;;;20.97;9.33;;;2.90;37.50;;;;;;5030233;28;20210;-47
2022/03/12 03:49:24;;;;;;;21.63;8.67;;;2.90;37.50;;;;;;5023112;28;20281;-48
2022/03/12 03:51:53;;;;;;;31.33;11.53;;;2.90;37.40;;;;;;5030172;28;20302;-54
2022/03/12 03:54:20;;;;;;;27.20;10.83;;;2.90;37.40;;;;;;5024741;28;20696;-50
2022/03/12 03:56:47;;;;;;;30.87;10.50;;;2.80;37.40;;;;;;5029052;28;20650;-52
2022/03/12 03:59:15;;;;;;;35.83;13.57;;;2.80;37.50;;;;;;5021843;28;20196;-49
2022/03/12 04:01:42;;;;;;;30.60;11.60;;;2.80;37.60;;;;;;5025447;28;20252;-51
2022/03/12 04:04:12;;;;;;;32.87;12.10;;;2.90;37.60;;;;;;5027650;28;20217;-49
2022/03/12 04:06:39;;;;;;;29.60;10.70;;;2.80;37.50;;;;;;5024126;28;20199;-45
2022/03/12 04:09:07;;;;;;;32.23;11.23;;;2.80;37.50;;;;;;5030690;28;20213;-50
2022/03/12 04:11:35;;;;;;;31.63;11.57;;;2.80;37.50;;;;;;5029170;28;20682;-50
2022/03/12 04:14:05;;;;;;;26.40;10.50;;;2.70;37.50;;;;;;5031906;28;20249;-49
2022/03/12 04:16:33;;;;;;;33.27;12.10;;;2.70;37.50;;;;;;5028734;28;20207;-49
2022/03/12 04:19:06;;;;;;;36.63;12.27;;;2.70;37.70;;;;;;5029739;28;20205;-46
2022/03/12 04:21:35;;;;;;;37.83;12.80;;;2.80;37.70;;;;;;5023417;28;20195;-49
2022/03/12 04:24:02;;;;;;;31.00;12.37;;;2.80;37.70;;;;;;5022061;28;20661;-48
2022/03/12 04:26:35;;;;;;;36.27;13.40;;;2.80;37.80;;;;;;5029443;28;20289;-55
2022/03/12 04:29:08;;;;;;;34.37;12.43;;;2.70;37.70;;;;;;5026894;28;20229;-52
2022/03/12 04:31:35;;;;;;;32.90;12.20;;;2.60;37.80;;;;;;5030130;28;20761;-52
2022/03/12 04:34:02;;;;;;;38.97;14.33;;;2.50;37.80;;;;;;5024095;28;20199;-51
2022/03/12 04:36:30;;;;;;;35.53;14.23;;;2.50;38.00;;;;;;5031573;28;20202;-51
2022/03/12 04:38:58;;;;;;;36.67;14.10;;;2.50;38.00;;;;;;5030650;28;20264;-54
2022/03/12 04:41:34;;;;;;;34.10;13.80;;;2.40;38.10;;;;;;5025431;28;20222;-48
2022/03/12 04:44:01;;;;;;;31.30;12.00;;;2.40;38.10;;;;;;5031853;28;20277;-51
2022/03/12 04:46:29;;;;;;;36.30;13.30;;;2.40;38.20;;;;;;5026709;28;20221;-51
2022/03/12 04:48:56;;;;;;;39.80;13.77;;;2.30;38.20;;;;;;5025565;28;20205;-49
2022/03/12 04:51:23;;;;;;;38.60;14.50;;;2.30;38.30;;;;;;5028444;28;20206;-45
2022/03/12 04:53:50;;;;;;;42.90;14.60;;;2.20;38.40;;;;;;5031151;28;20205;-50
2022/03/12 04:56:19;;;;;;;32.53;11.63;;;2.20;38.50;;;;;;5018581;28;20205;-48
2022/03/12 04:58:47;;;;;;;35.27;12.87;;;2.20;38.60;;;;;;5030606;28;20190;-47
2022/03/12 05:01:14;;;;;;;35.03;12.23;;;2.10;38.60;;;;;;5027539;28;20631;-49
2022/03/12 05:03:42;;;;;;;37.17;14.27;;;2.20;38.80;;;;;;5021770;28;20230;-50
2022/03/12 05:06:13;;;;;;;36.07;12.97;;;2.10;38.70;;;;;;5027740;28;20195;-45
2022/03/12 05:08:40;;;;;;;40.30;14.27;;;2.10;38.70;;;;;;5029796;28;20202;-47
2022/03/12 05:11:08;;;;;;;30.17;12.30;;;2.10;38.80;;;;;;5025629;28;20229;-50
2022/03/12 05:13:40;;;;;;;38.60;12.77;;;2.00;38.80;;;;;;5026688;28;20194;-47
2022/03/12 05:16:08;;;;;;;35.67;12.70;;;1.90;38.80;;;;;;5010490;28;20257;-48
2022/03/12 05:18:36;;;;;;;33.67;11.73;;;2.00;38.90;;;;;;5027467;28;20288;-48
2022/03/12 05:21:05;;;;;;;33.07;11.70;;;2.00;38.80;;;;;;5027629;28;20202;-51
2022/03/12 05:23:33;;;;;;;34.10;12.70;;;2.00;38.90;;;;;;5023066;28;20213;-51
2022/03/12 05:26:00;;;;;;;29.53;11.23;;;2.00;39.00;;;;;;5026203;28;20245;-52
2022/03/12 05:28:29;;;;;;;33.90;12.00;;;2.00;39.00;;;;;;5006870;28;20203;-52
2022/03/12 05:31:04;;;;;;;33.87;13.03;;;2.00;38.90;;;;;;5011395;28;20214;-51
2022/03/12 05:33:32;;;;;;;31.60;11.53;;;2.00;38.90;;;;;;5023992;28;20221;-53
2022/03/12 05:35:59;;;;;;;36.00;12.37;;;2.10;39.10;;;;;;5022345;28;20563;-48
2022/03/12 05:38:34;;;;;;;29.50;11.03;;;2.10;39.10;;;;;;5026201;28;20210;-49
2022/03/12 05:41:02;;;;;;;35.90;12.80;;;2.10;39.00;;;;;;5022156;28;20653;-47
2022/03/12 05:43:31;;;;;;;39.67;13.60;;;2.10;39.00;;;;;;5007389;28;20209;-53
2022/03/12 05:46:01;;;;;;;39.13;12.83;;;2.10;39.10;;;;;;5022400;28;20199;-49
2022/03/12 05:48:28;;;;;;;40.03;14.20;;;2.20;39.20;;;;;;5005884;28;20746;-52
2022/03/12 05:50:56;;;;;;;26.07;11.60;;;2.10;39.10;;;;;;5023020;28;20196;-51
2022/03/12 05:53:24;;;;;;;28.13;11.70;;;2.10;39.10;;;;;;5008792;28;20234;-53
2022/03/12 05:55:52;;;;;;;30.67;10.80;;;2.20;39.20;;;;;;5029918;28;20301;-49
2022/03/12 05:58:26;;;;;;;29.13;10.67;;;2.30;39.20;;;;;;5020635;28;20244;-52
2022/03/12 06:00:55;;;;;;;26.93;10.27;;;2.30;39.20;;;;;;5027955;28;20301;-51
2022/03/12 06:03:24;;;;;;;34.67;12.53;;;2.30;39.20;;;;;;5025468;28;20242;-50
2022/03/12 06:05:56;;;;;;;28.23;11.17;;;2.20;39.20;;;;;;5023404;28;20197;-51
2022/03/12 06:08:24;;;;;;;30.17;11.13;;;2.20;39.30;;;;;;5011212;28;20821;-55
2022/03/12 06:10:54;;;;;;;22.00;9.90;;;2.30;39.50;;;;;;5028782;28;20190;-52
2022/03/12 06:13:23;;;;;;;24.80;10.43;;;2.20;39.30;;;;;;5021455;28;20230;-48
2022/03/12 06:15:58;;;;;;;33.13;13.47;;;2.20;39.30;;;;;;5019298;28;20701;-45
2022/03/12 06:18:28;;;;;;;28.30;11.10;;;2.30;39.50;;;;;;5029616;28;20198;-47
2022/03/12 06:20:55;;;;;;;30.00;11.50;;;2.30;39.40;;;;;;5023184;28;20187;-46
2022/03/12 06:23:23;;;;;;;29.00;10.50;;;2.40;39.20;;;;;;5015657;28;20247;-48
2022/03/12 06:25:52;;;;;;;31.70;11.57;;;2.60;39.10;;;;;;5027955;28;20202;-53
2022/03/12 06:28:21;;;;;;;28.80;11.47;;;2.70;39.00;;;;;;5026551;28;20206;-45
2022/03/12 06:30:53;;;;;;;36.07;12.20;;;2.80;38.90;;;;;;5020040;28;20186;-45
2022/03/12 06:33:22;;;;;;;29.20;11.70;;;2.80;38.70;;;;;;5024601;28;20199;-50
2022/03/12 06:35:52;;;;;;;40.10;15.07;;;2.90;38.70;;;;;;5009123;28;20621;-45
2022/03/12 06:38:19;;;;;;;31.70;11.87;;;2.90;38.70;;;;;;5015923;28;20317;-53
2022/03/12 06:40:47;;;;;;;30.30;11.30;;;2.90;38.60;;;;;;5016912;28;20213;-46
2022/03/12 06:43:19;;;;;;;30.80;11.90;;;2.90;38.60;;;;;;5019735;28;20186;-48
2022/03/12 06:45:47;;;;;;;36.77;13.60;;;2.90;38.70;;;;;;5016135;28;20191;-48
2022/03/12 06:48:14;;;;;;;38.07;14.77;;;3.00;39.00;;;;;;5020071;28;20558;-48
2022/03/12 06:50:42;;;;;;;38.53;14.03;;;3.00;38.90;;;;;;5021471;28;20252;-47
2022/03/12 06:53:10;;;;;;;44.53;14.47;;;3.10;39.00;;;;;;5024305;28;20277;-48
2022/03/12 06:55:37;;;;;;;41.90;15.50;;;3.10;39.10;;;;;;5032032;28;20205;-48
2022/03/12 06:58:05;;;;;;;36.30;13.10;;;3.20;39.10;;;;;;5012666;28;20677;-52
2022/03/12 07:00:33;;;;;;;40.60;14.43;;;3.20;39.00;;;;;;5024809;28;20248;-45
2022/03/12 07:03:01;;;;;;;27.37;11.23;;;3.30;39.10;;;;;;5032742;28;20597;-44
2022/03/12 07:05:29;;;;;;;37.20;14.53;;;3.40;39.20;;;;;;5032268;28;20190;-45
2022/03/12 07:07:56;;;;;;;28.50;12.17;;;3.40;39.30;;;;;;5027026;28;20190;-48
2022/03/12 07:10:25;;;;;;;29.23;12.80;;;3.50;39.20;;;;;;5029799;28;20206;-45
2022/03/12 07:12:52;;;;;;;32.07;13.37;;;3.70;39.30;;;;;;5031418;28;20202;-44
2022/03/12 07:15:21;;;;;;;39.03;14.27;;;3.80;39.40;;;;;;5025010;28;20237;-44
2022/03/12 07:17:49;;;;;;;32.87;12.27;;;3.90;39.50;;;;;;5031225;28;20193;-48
2022/03/12 07:20:17;;;;;;;31.47;12.93;;;3.90;39.30;;;;;;5031157;28;20201;-46
2022/03/12 07:22:45;;;;;;;39.97;13.67;;;4.00;39.20;;;;;;5021227;28;22137;-50
2022/03/12 07:25:13;;;;;;;32.33;11.87;;;4.20;39.30;;;;;;5028569;28;20286;-49
2022/03/12 07:27:43;;;;;;;31.27;11.77;;;4.30;39.20;;;;;;5031212;28;20240;-50
2022/03/12 07:30:13;;;;;;;30.73;12.90;;;4.40;39.20;;;;;;5027900;28;20198;-48
2022/03/12 07:32:42;;;;;;;33.10;13.73;;;4.50;39.00;;;;;;5031202;28;20555;-50
2022/03/12 07:35:11;;;;;;;38.97;14.70;;;4.60;39.20;;;;;;5014631;28;20198;-47
2022/03/12 07:37:39;;;;;;;33.63;12.63;;;4.70;39.30;;;;;;5028686;28;20485;-45
2022/03/12 07:40:09;;;;;;;33.23;12.57;;;4.80;39.10;;;;;;5025642;28;20250;-51
2022/03/12 07:42:36;;;;;;;31.93;13.23;;;4.90;38.90;;;;;;5005695;28;20187;-46
2022/03/12 07:45:09;;;;;;;39.83;14.43;;;5.00;38.90;;;;;;5004893;28;20211;-47
2022/03/12 07:47:37;;;;;;;40.67;15.53;;;5.20;38.80;;;;;;5030346;28;20213;-52
2022/03/12 07:50:07;;;;;;;38.73;14.03;;;5.30;38.50;;;;;;5014070;28;20221;-53
2022/03/12 07:52:34;;;;;;;42.33;15.50;;;5.40;39.00;;;;;;5026595;28;20693;-53
2022/03/12 07:55:02;;;;;;;41.17;15.50;;;5.60;38.40;;;;;;5031436;28;20198;-48
2022/03/12 07:57:29;;;;;;;30.43;12.57;;;5.70;38.10;;;;;;5030766;28;20232;-47
2022/03/12 07:59:57;;;;;;;31.40;12.17;;;5.80;38.00;;;;;;5027849;28;22245;-48
2022/03/12 08:02:26;;;;;;;33.60;13.83;;;6.30;38.20;;;;;;5027900;28;20241;-44
2022/03/12 08:04:53;;;;;;;31.93;12.43;;;7.70;37.50;;;;;;5028125;28;20237;-45
2022/03/12 08:07:20;;;;;;;27.27;12.40;;;9.10;35.80;;;;;;5008349;28;20656;-49
2022/03/12 08:09:48;;;;;;;33.93;12.73;;;10.20;33.00;;;;;;5013113;28;20667;-48
2022/03/12 08:12:16;;;;;;;31.17;12.73;;;11.20;32.40;;;;;;5031502;28;20618;-48
2022/03/12 08:14:45;;;;;;;35.43;12.53;;;12.20;31.20;;;;;;5015954;28;20335;-51
2022/03/12 08:17:12;;;;;;;28.30;11.97;;;13.00;30.50;;;;;;5037560;28;20196;-52
2022/03/12 08:19:40;;;;;;;32.23;13.80;;;13.80;30.00;;;;;;5023787;28;20198;-54
2022/03/12 08:22:08;;;;;;;31.03;13.43;;;14.50;29.10;;;;;;5022669;28;20596;-45
2022/03/12 08:24:35;;;;;;;33.43;13.20;;;15.00;28.40;;;;;;5029815;28;20192;-45
2022/03/12 08:27:02;;;;;;;27.53;12.03;;;15.50;27.90;;;;;;5029421;28;20286;-45
2022/03/12 08:29:29;;;;;;;28.93;11.57;;;15.70;27.50;;;;;;5022113;28;20210;-48
2022/03/12 08:31:56;;;;;;;29.60;12.60;;;16.20;27.40;;;;;;5029914;28;20643;-49
2022/03/12 08:34:25;;;;;;;27.57;12.23;;;16.80;26.70;;;;;;5013182;28;20217;-45
2022/03/12 08:36:54;;;;;;;30.20;13.00;;;17.00;25.80;;;;;;5025896;28;20197;-46
2022/03/12 08:39:21;;;;;;;26.20;11.23;;;16.90;25.40;;;;;;5012636;28;20197;-42
2022/03/12 08:41:48;;;;;;;26.77;11.97;;;16.80;25.40;;;;;;5030298;28;20312;-47
2022/03/12 08:44:16;;;;;;;23.90;11.80;;;17.00;24.80;;;;;;5023480;28;20614;-45
2022/03/12 08:46:45;;;;;;;29.13;12.27;;;17.30;24.90;;;;;;5026999;28;20222;-48
2022/03/12 08:49:16;;;;;;;22.93;10.73;;;17.30;24.50;;;;;;5030826;28;20589;-44
2022/03/12 08:51:43;;;;;;;22.77;10.20;;;17.30;24.60;;;;;;5023344;28;20200;-45
2022/03/12 08:54:12;;;;;;;23.77;11.03;;;17.30;24.60;;;;;;5027255;28;20210;-44
2022/03/12 08:56:39;;;;;;;24.63;11.60;;;17.30;24.60;;;;;;5025848;28;20610;-45
2022/03/12 08:59:07;;;;;;;23.53;11.27;;;17.30;23.90;;;;;;5021788;28;20678;-46
2022/03/12 09:01:37;;;;;;;29.10;11.83;;;17.20;23.80;;;;;;5029333;28;20222;-46
2022/03/12 09:04:05;;;;;;;20.47;10.03;;;17.00;23.20;;;;;;5029500;28;20226;-45
2022/03/12 09:06:32;;;;;;;22.10;10.27;;;17.00;23.30;;;;;;5010768;28;20206;-45
2022/03/12 09:09:00;;;;;;;20.20;9.63;;;17.10;23.20;;;;;;5035680;28;20638;-44
2022/03/12 09:11:28;;;;;;;18.20;8.63;;;17.10;23.30;;;;;;5028728;28;20186;-45
2022/03/12 09:13:55;;;;;;;14.47;7.27;;;17.00;23.50;;;;;;5023001;28;20209;-44
2022/03/12 09:16:23;;;;;;;16.07;7.93;;;16.70;23.80;;;;;;5029445;28;20215;-43
2022/03/12 09:18:52;;;;;;;21.00;9.63;;;16.50;23.70;;;;;;5029050;28;20626;-46
2022/03/12 09:21:19;;;;;;;15.90;7.73;;;16.30;23.40;;;;;;5025826;28;20260;-42
2022/03/12 09:23:46;;;;;;;16.10;7.33;;;16.50;23.70;;;;;;5019983;28;20197;-42
2022/03/12 09:26:14;;;;;;;14.30;7.20;;;16.70;23.50;;;;;;5030609;28;20583;-45
2022/03/12 09:28:43;;;;;;;17.70;8.43;;;16.60;23.30;;;;;;5022242;28;20613;-46
2022/03/12 09:31:11;;;;;;;13.30;7.47;;;16.20;22.60;;;;;;5024515;28;20666;-42
2022/03/12 09:33:38;;;;;;;16.17;7.73;;;16.00;22.40;;;;;;5008382;28;20333;-45
2022/03/12 09:36:06;;;;;;;17.83;7.73;;;16.00;22.20;;;;;;5009523;28;20302;-42
2022/03/12 09:38:33;;;;;;;17.53;8.27;;;15.70;21.80;;;;;;5025346;28;20203;-44
2022/03/12 09:41:01;;;;;;;15.07;7.87;;;15.40;22.10;;;;;;5028809;28;20191;-43
2022/03/12 09:43:28;;;;;;;15.93;7.67;;;15.30;22.00;;;;;;5025342;28;20320;-45
2022/03/12 09:45:59;;;;;;;13.50;7.80;;;15.10;22.00;;;;;;5026408;28;20630;-44
2022/03/12 09:48:27;;;;;;;15.47;7.60;;;15.00;22.10;;;;;;5025291;28;20195;-43
2022/03/12 09:50:54;;;;;;;16.73;7.73;;;15.10;22.40;;;;;;5008854;28;20217;-46
2022/03/12 09:53:21;;;;;;;15.53;7.63;;;15.40;22.10;;;;;;5018813;28;20231;-48
2022/03/12 09:55:48;;;;;;;15.03;7.53;;;15.90;22.00;;;;;;5022717;28;20199;-47
2022/03/12 09:58:15;;;;;;;14.80;6.83;;;16.40;21.60;;;;;;5025625;28;20199;-45
2022/03/12 10:00:43;;;;;;;12.10;6.33;;;16.90;21.70;;;;;;5021917;28;20560;-48
2022/03/12 10:03:11;;;;;;;13.70;7.30;;;17.80;21.50;;;;;;5024668;28;20227;-48
2022/03/12 10:05:40;;;;;;;16.10;8.43;;;19.10;21.10;;;;;;5024253;28;20201;-50
2022/03/12 10:08:08;;;;;;;17.63;8.60;;;20.40;20.20;;;;;;5025356;28;20283;-47
2022/03/12 10:10:36;;;;;;;15.43;7.90;;;21.20;19.50;;;;;;5027353;28;20340;-51
2022/03/12 10:13:04;;;;;;;12.83;7.50;;;21.80;19.40;;;;;;5019480;28;20211;-44
2022/03/12 10:15:31;;;;;;;12.80;7.07;;;22.50;19.60;;;;;;5023869;28;20687;-47
2022/03/12 10:17:59;;;;;;;12.37;6.60;;;23.10;18.40;;;;;;5022417;28;20285;-45
2022/03/12 10:20:28;;;;;;;14.87;7.70;;;23.60;18.50;;;;;;5025831;28;20620;-47
2022/03/12 10:22:56;;;;;;;10.07;6.72;;;24.30;18.60;;;;;;5025509;28;20548;-48
2022/03/12 10:25:23;;;;;;;13.43;6.32;;;24.70;18.20;;;;;;5028343;28;20202;-50
2022/03/12 10:27:51;;;;;;;11.50;6.22;;;24.90;18.10;;;;;;5022279;28;20195;-48
2022/03/12 10:30:18;;;;;;;11.95;6.53;;;25.40;18.10;;;;;;5027339;28;20209;-48
2022/03/12 10:32:48;;;;;;;9.50;6.20;;;25.80;17.50;;;;;;5028990;28;20271;-45
2022/03/12 10:35:18;;;;;;;8.73;5.63;;;26.10;17.00;;;;;;5024980;28;20553;-47
2022/03/12 10:37:48;;;;;;;11.82;6.30;;;26.70;17.40;;;;;;5021242;28;20197;-46
2022/03/12 10:40:17;;;;;;;9.27;5.93;;;27.10;17.00;;;;;;5026755;28;20198;-42
2022/03/12 10:42:50;;;;;;;10.63;6.68;;;27.50;16.80;;;;;;5027777;28;20293;-45
2022/03/12 10:45:20;;;;;;;10.07;6.13;;;27.70;16.50;;;;;;5025008;28;20193;-46
2022/03/12 10:47:51;;;;;;;8.48;6.38;;;27.90;16.70;;;;;;5027968;28;20221;-47
2022/03/12 10:50:21;;;;;;;9.32;6.13;;;28.20;16.60;;;;;;5019441;28;20210;-43
2022/03/12 10:52:51;;;;;;;10.43;6.45;;;28.60;16.50;;;;;;4996733;28;20195;-52
2022/03/12 10:55:25;;;;;;;8.85;6.63;;;29.00;16.40;;;;;;5012209;28;20237;-46
2022/03/12 10:58:00;;;;;;;8.40;5.90;;;29.50;16.30;;;;;;5028604;28;20244;-47
2022/03/12 11:00:29;;;;;;;10.95;7.13;;;29.80;16.20;;;;;;5015275;28;20194;-47
2022/03/12 11:02:58;;;;;;;7.65;5.75;;;29.80;16.30;;;;;;5028492;28;20234;-45
2022/03/12 11:05:27;;;;;;;9.75;6.90;;;29.90;15.80;;;;;;5012006;28;20202;-53
2022/03/12 11:08:15;;;;;;;12.05;7.70;;;30.00;15.50;;;;;;5024154;28;20225;-52
2022/03/12 11:10:52;;;;;;;15.27;9.30;;;30.10;15.60;;;;;;5027369;28;20199;-52
2022/03/12 11:13:39;;;;;;;10.77;7.68;;;29.90;15.50;;;;;;5011396;28;20735;-52
2022/03/12 11:16:12;;;;;;;14.13;8.13;;;29.80;15.30;;;;;;5022667;28;20194;-52
2022/03/12 11:18:48;;;;;;;12.10;6.85;;;29.90;15.40;;;;;;5027896;28;20725;-47
2022/03/12 11:21:25;;;;;;;13.52;8.30;;;30.20;15.70;;;;;;5010921;28;20294;-48
2022/03/12 11:23:54;;;;;;;18.70;10.32;;;30.50;15.30;;;;;;5026085;28;20202;-47
2022/03/12 11:26:23;;;;;;;14.48;8.15;;;30.40;15.00;;;;;;5020153;28;20190;-47
2022/03/12 11:28:57;;;;;;;10.30;7.53;;;29.90;15.00;;;;;;5028332;28;20199;-48
2022/03/12 11:31:49;;;;;;;11.70;7.13;;;29.60;14.80;;;;;;5025129;28;20612;-46
2022/03/12 11:34:22;;;;;;;12.07;7.65;;;29.10;15.30;;;;;;5026873;28;20199;-47
2022/03/12 11:37:12;;;;;;;10.38;6.90;;;29.40;15.20;;;;;;5026771;28;20676;-50
2022/03/12 11:39:44;;;;;;;12.45;7.85;;;29.80;15.50;;;;;;5025043;28;20623;-48
2022/03/12 11:42:14;;;;;;;13.07;7.95;;;30.10;15.00;;;;;;5024216;28;20202;-44
2022/03/12 11:44:44;;;;;;;15.27;8.73;;;29.70;14.90;;;;;;5021440;28;20213;-43
2022/03/12 11:47:12;;;;;;;12.68;8.60;;;29.70;14.80;;;;;;5027535;28;20190;-46
2022/03/12 11:49:40;;;;;;;11.98;7.70;;;29.50;14.40;;;;;;5031960;28;20206;-46
2022/03/12 11:52:08;;;;;;;13.23;7.00;;;29.40;14.80;;;;;;5028326;28;20211;-46
2022/03/12 11:54:40;;;;;;;10.05;6.75;;;29.70;15.10;;;;;;5029284;28;20624;-44
2022/03/12 11:57:09;;;;;;;10.95;7.70;;;30.20;15.00;;;;;;5031928;28;20665;-49
2022/03/12 11:59:37;;;;;;;12.55;8.35;;;30.70;14.80;;;;;;5028419;28;20227;-47
2022/03/12 12:02:19;;;;;;;11.13;7.80;;;30.70;14.30;;;;;;5031259;28;20246;-47
2022/03/12 12:04:46;;;;;;;11.63;7.28;;;30.50;14.60;;;;;;5027713;28;20198;-43
2022/03/12 12:07:14;;;;;;;9.15;6.32;;;31.20;14.90;;;;;;5020051;28;20191;-46
2022/03/12 12:09:42;;;;;;;8.90;6.45;;;31.60;14.60;;;;;;5020274;28;20638;-46
2022/03/12 12:12:13;;;;;;;11.30;7.70;;;32.10;14.60;;;;;;5027652;28;20304;-50
2022/03/12 12:14:41;;;;;;;13.77;9.30;;;32.50;14.60;;;;;;5028182;28;20700;-46
2022/03/12 12:17:08;;;;;;;14.52;9.10;;;32.90;14.30;;;;;;5019823;28;20198;-47
2022/03/12 12:19:35;;;;;;;13.18;8.18;;;32.90;13.70;;;;;;5030267;28;20201;-45
2022/03/12 12:22:03;;;;;;;12.70;8.27;;;32.90;13.70;;;;;;5028452;28;20547;-50
2022/03/12 12:24:31;;;;;;;11.02;8.13;;;32.80;13.60;;;;;;5029493;28;20689;-46
2022/03/12 12:27:01;;;;;;;11.75;8.07;;;32.60;13.50;;;;;;5029008;28;20203;-46
2022/03/12 12:29:50;;;;;;;11.57;8.15;;;32.50;13.50;;;;;;5025892;28;20671;-46
2022/03/12 12:32:18;;;;;;;14.88;8.80;;;32.60;13.70;;;;;;5025375;28;20195;-45
2022/03/12 12:35:02;;;;;;;11.93;8.15;;;32.80;13.50;;;;;;5020006;28;20217;-48
2022/03/12 12:37:47;;;;;;;10.88;7.20;;;32.80;13.40;;;;;;5027474;28;20539;-46
2022/03/12 12:40:23;;;;;;;12.77;8.38;;;33.00;13.70;;;;;;5031063;28;20659;-46
2022/03/12 12:42:53;;;;;;;12.43;7.85;;;33.10;13.30;;;;;;5028327;28;20197;-43
2022/03/12 12:45:23;;;;;;;12.43;7.90;;;33.00;13.30;;;;;;5026415;28;20256;-44